sensor_id;sensor_type;location;lat;lon;timestamp;P1;durP1;ratioP1;P2;durP2;ratioP2
42864;SDS011;28511;42.680;23.252;2023-11-21T00:00:54;5.95;;;5.35;;
42864;SDS011;28511;42.680;23.252;2023-11-21T00:03:19;4.05;;;3.65;;
42864;SDS011;28511;42.680;23.252;2023-11-21T00:05:45;4.95;;;3.88;;
42864;SDS011;28511;42.680;23.252;2023-11-21T00:08:10;6.85;;;4.88;;
42864;SDS011;28511;42.680;23.252;2023-11-21T00:10:35;3.95;;;3.60;;
42864;SDS011;28511;42.680;23.252;2023-11-21T00:13:04;12.13;;;6.47;;
42864;SDS011;28511;42.680;23.252;2023-11-21T00:15:29;17.10;;;5.53;;
42864;SDS011;28511;42.680;23.252;2023-11-21T00:17:54;17.02;;;3.60;;
42864;SDS011;28511;42.680;23.252;2023-11-21T00:20:20;8.38;;;3.88;;
42864;SDS011;28511;42.680;23.252;2023-11-21T00:22:45;5.32;;;4.32;;
42864;SDS011;28511;42.680;23.252;2023-11-21T00:25:12;7.60;;;4.22;;
42864;SDS011;28511;42.680;23.252;2023-11-21T00:27:40;4.55;;;2.47;;
42864;SDS011;28511;42.680;23.252;2023-11-21T00:30:05;4.35;;;3.03;;
42864;SDS011;28511;42.680;23.252;2023-11-21T00:32:31;8.80;;;5.60;;
42864;SDS011;28511;42.680;23.252;2023-11-21T00:34:57;10.02;;;4.43;;
42864;SDS011;28511;42.680;23.252;2023-11-21T00:37:22;4.20;;;3.17;;
42864;SDS011;28511;42.680;23.252;2023-11-21T00:39:49;11.25;;;4.80;;
42864;SDS011;28511;42.680;23.252;2023-11-21T00:42:14;6.72;;;2.83;;
42864;SDS011;28511;42.680;23.252;2023-11-21T00:44:39;3.67;;;3.33;;
42864;SDS011;28511;42.680;23.252;2023-11-21T00:47:05;4.38;;;3.47;;
42864;SDS011;28511;42.680;23.252;2023-11-21T00:49:30;6.70;;;4.28;;
42864;SDS011;28511;42.680;23.252;2023-11-21T00:51:56;4.63;;;3.80;;
42864;SDS011;28511;42.680;23.252;2023-11-21T00:54:23;2.60;;;1.83;;
42864;SDS011;28511;42.680;23.252;2023-11-21T00:56:48;8.10;;;4.35;;
42864;SDS011;28511;42.680;23.252;2023-11-21T00:59:13;2.35;;;2.15;;
42864;SDS011;28511;42.680;23.252;2023-11-21T01:01:40;8.38;;;4.15;;
42864;SDS011;28511;42.680;23.252;2023-11-21T01:04:05;6.05;;;4.07;;
42864;SDS011;28511;42.680;23.252;2023-11-21T01:06:32;7.82;;;3.13;;
42864;SDS011;28511;42.680;23.252;2023-11-21T01:08:57;2.67;;;2.47;;
42864;SDS011;28511;42.680;23.252;2023-11-21T01:11:22;5.53;;;1.83;;
42864;SDS011;28511;42.680;23.252;2023-11-21T01:13:47;3.97;;;3.08;;
42864;SDS011;28511;42.680;23.252;2023-11-21T01:16:13;4.10;;;2.83;;
42864;SDS011;28511;42.680;23.252;2023-11-21T01:18:38;8.88;;;3.05;;
42864;SDS011;28511;42.680;23.252;2023-11-21T01:21:04;1.92;;;1.77;;
42864;SDS011;28511;42.680;23.252;2023-11-21T01:23:29;7.18;;;2.55;;
42864;SDS011;28511;42.680;23.252;2023-11-21T01:25:56;2.17;;;1.58;;
42864;SDS011;28511;42.680;23.252;2023-11-21T01:28:22;3.42;;;2.10;;
42864;SDS011;28511;42.680;23.252;2023-11-21T01:30:48;4.53;;;3.42;;
42864;SDS011;28511;42.680;23.252;2023-11-21T01:33:14;2.95;;;2.63;;
42864;SDS011;28511;42.680;23.252;2023-11-21T01:35:40;4.40;;;2.38;;
42864;SDS011;28511;42.680;23.252;2023-11-21T01:38:07;7.32;;;5.20;;
42864;SDS011;28511;42.680;23.252;2023-11-21T01:40:33;3.05;;;2.80;;
42864;SDS011;28511;42.680;23.252;2023-11-21T01:42:59;6.65;;;3.17;;
42864;SDS011;28511;42.680;23.252;2023-11-21T01:45:25;5.40;;;4.10;;
42864;SDS011;28511;42.680;23.252;2023-11-21T01:47:51;5.07;;;3.03;;
42864;SDS011;28511;42.680;23.252;2023-11-21T01:50:17;8.18;;;4.47;;
42864;SDS011;28511;42.680;23.252;2023-11-21T01:52:43;7.22;;;4.43;;
42864;SDS011;28511;42.680;23.252;2023-11-21T01:55:09;5.63;;;4.75;;
42864;SDS011;28511;42.680;23.252;2023-11-21T01:57:35;2.83;;;2.13;;
42864;SDS011;28511;42.680;23.252;2023-11-21T02:00:02;9.65;;;2.60;;
42864;SDS011;28511;42.680;23.252;2023-11-21T02:02:42;3.10;;;2.42;;
42864;SDS011;28511;42.680;23.252;2023-11-21T02:05:07;2.88;;;2.20;;
42864;SDS011;28511;42.680;23.252;2023-11-21T02:07:34;2.78;;;2.58;;
42864;SDS011;28511;42.680;23.252;2023-11-21T02:09:59;3.25;;;2.85;;
42864;SDS011;28511;42.680;23.252;2023-11-21T02:12:25;3.33;;;3.03;;
42864;SDS011;28511;42.680;23.252;2023-11-21T02:14:51;4.03;;;2.63;;
42864;SDS011;28511;42.680;23.252;2023-11-21T02:17:17;1.67;;;1.58;;
42864;SDS011;28511;42.680;23.252;2023-11-21T02:19:43;3.55;;;3.13;;
42864;SDS011;28511;42.680;23.252;2023-11-21T02:22:09;2.47;;;2.28;;
42864;SDS011;28511;42.680;23.252;2023-11-21T02:24:40;3.30;;;2.78;;
42864;SDS011;28511;42.680;23.252;2023-11-21T02:27:08;16.63;;;3.83;;
42864;SDS011;28511;42.680;23.252;2023-11-21T02:29:33;9.50;;;3.95;;
42864;SDS011;28511;42.680;23.252;2023-11-21T02:31:59;2.00;;;1.90;;
42864;SDS011;28511;42.680;23.252;2023-11-21T02:34:24;5.95;;;5.10;;
42864;SDS011;28511;42.680;23.252;2023-11-21T02:36:50;2.78;;;2.55;;
42864;SDS011;28511;42.680;23.252;2023-11-21T02:39:16;7.60;;;3.47;;
42864;SDS011;28511;42.680;23.252;2023-11-21T02:41:47;4.20;;;3.80;;
42864;SDS011;28511;42.680;23.252;2023-11-21T02:44:13;8.02;;;4.88;;
42864;SDS011;28511;42.680;23.252;2023-11-21T02:46:40;8.90;;;4.18;;
42864;SDS011;28511;42.680;23.252;2023-11-21T02:49:05;16.08;;;4.38;;
42864;SDS011;28511;42.680;23.252;2023-11-21T02:54:00;4.03;;;3.13;;
42864;SDS011;28511;42.680;23.252;2023-11-21T02:56:30;2.08;;;1.88;;
42864;SDS011;28511;42.680;23.252;2023-11-21T02:58:55;4.95;;;4.05;;
42864;SDS011;28511;42.680;23.252;2023-11-21T03:01:21;2.17;;;1.98;;
42864;SDS011;28511;42.680;23.252;2023-11-21T03:03:46;3.50;;;2.10;;
42864;SDS011;28511;42.680;23.252;2023-11-21T03:06:16;2.22;;;1.70;;
42864;SDS011;28511;42.680;23.252;2023-11-21T03:08:41;3.22;;;2.47;;
42864;SDS011;28511;42.680;23.252;2023-11-21T03:11:08;3.42;;;3.10;;
42864;SDS011;28511;42.680;23.252;2023-11-21T03:13:33;2.30;;;2.13;;
42864;SDS011;28511;42.680;23.252;2023-11-21T03:15:59;5.07;;;2.10;;
42864;SDS011;28511;42.680;23.252;2023-11-21T03:18:25;1.98;;;1.88;;
42864;SDS011;28511;42.680;23.252;2023-11-21T03:20:52;4.25;;;2.72;;
42864;SDS011;28511;42.680;23.252;2023-11-21T03:23:18;1.35;;;1.05;;
42864;SDS011;28511;42.680;23.252;2023-11-21T03:25:43;20.75;;;2.40;;
42864;SDS011;28511;42.680;23.252;2023-11-21T03:28:09;2.92;;;2.38;;
42864;SDS011;28511;42.680;23.252;2023-11-21T03:30:34;2.78;;;2.55;;
42864;SDS011;28511;42.680;23.252;2023-11-21T03:33:00;2.22;;;1.95;;
42864;SDS011;28511;42.680;23.252;2023-11-21T03:35:25;7.43;;;5.72;;
42864;SDS011;28511;42.680;23.252;2023-11-21T03:37:53;8.50;;;2.50;;
42864;SDS011;28511;42.680;23.252;2023-11-21T03:40:18;3.72;;;3.38;;
42864;SDS011;28511;42.680;23.252;2023-11-21T03:42:44;2.72;;;2.50;;
42864;SDS011;28511;42.680;23.252;2023-11-21T03:45:09;7.25;;;1.98;;
42864;SDS011;28511;42.680;23.252;2023-11-21T03:47:35;3.13;;;2.45;;
42864;SDS011;28511;42.680;23.252;2023-11-21T03:50:00;4.57;;;3.42;;
42864;SDS011;28511;42.680;23.252;2023-11-21T03:52:25;4.07;;;2.22;;
42864;SDS011;28511;42.680;23.252;2023-11-21T03:54:52;5.50;;;4.00;;
42864;SDS011;28511;42.680;23.252;2023-11-21T03:57:17;8.60;;;2.90;;
42864;SDS011;28511;42.680;23.252;2023-11-21T03:59:43;2.10;;;1.90;;
42864;SDS011;28511;42.680;23.252;2023-11-21T04:02:08;4.45;;;1.85;;
42864;SDS011;28511;42.680;23.252;2023-11-21T04:04:34;12.52;;;4.85;;
42864;SDS011;28511;42.680;23.252;2023-11-21T04:06:59;3.58;;;3.25;;
42864;SDS011;28511;42.680;23.252;2023-11-21T04:09:25;1.83;;;1.73;;
42864;SDS011;28511;42.680;23.252;2023-11-21T04:11:53;1.95;;;1.77;;
42864;SDS011;28511;42.680;23.252;2023-11-21T04:14:19;4.13;;;3.75;;
42864;SDS011;28511;42.680;23.252;2023-11-21T04:16:45;2.50;;;2.35;;
42864;SDS011;28511;42.680;23.252;2023-11-21T04:19:10;1.67;;;1.58;;
42864;SDS011;28511;42.680;23.252;2023-11-21T04:21:36;2.47;;;1.75;;
42864;SDS011;28511;42.680;23.252;2023-11-21T04:24:02;4.35;;;1.52;;
42864;SDS011;28511;42.680;23.252;2023-11-21T04:26:27;2.28;;;2.13;;
42864;SDS011;28511;42.680;23.252;2023-11-21T04:28:53;6.45;;;2.03;;
42864;SDS011;28511;42.680;23.252;2023-11-21T04:31:18;11.95;;;3.90;;
42864;SDS011;28511;42.680;23.252;2023-11-21T04:33:43;6.78;;;4.18;;
42864;SDS011;28511;42.680;23.252;2023-11-21T04:36:10;5.35;;;2.65;;
42864;SDS011;28511;42.680;23.252;2023-11-21T04:38:35;3.40;;;2.13;;
42864;SDS011;28511;42.680;23.252;2023-11-21T04:41:01;1.27;;;1.17;;
42864;SDS011;28511;42.680;23.252;2023-11-21T04:43:26;3.55;;;3.17;;
42864;SDS011;28511;42.680;23.252;2023-11-21T04:45:52;12.45;;;3.40;;
42864;SDS011;28511;42.680;23.252;2023-11-21T04:48:18;9.75;;;2.97;;
42864;SDS011;28511;42.680;23.252;2023-11-21T04:50:43;3.00;;;2.80;;
42864;SDS011;28511;42.680;23.252;2023-11-21T04:53:08;5.03;;;2.67;;
42864;SDS011;28511;42.680;23.252;2023-11-21T04:55:34;2.85;;;2.65;;
42864;SDS011;28511;42.680;23.252;2023-11-21T04:57:59;7.63;;;4.38;;
42864;SDS011;28511;42.680;23.252;2023-11-21T05:00:25;3.97;;;3.58;;
42864;SDS011;28511;42.680;23.252;2023-11-21T05:02:51;6.88;;;3.72;;
42864;SDS011;28511;42.680;23.252;2023-11-21T05:05:17;5.25;;;3.13;;
42864;SDS011;28511;42.680;23.252;2023-11-21T05:07:43;4.20;;;2.92;;
42864;SDS011;28511;42.680;23.252;2023-11-21T05:10:09;3.55;;;2.90;;
42864;SDS011;28511;42.680;23.252;2023-11-21T05:12:37;4.40;;;4.00;;
42864;SDS011;28511;42.680;23.252;2023-11-21T05:15:03;4.82;;;3.58;;
42864;SDS011;28511;42.680;23.252;2023-11-21T05:19:59;4.43;;;4.13;;
42864;SDS011;28511;42.680;23.252;2023-11-21T05:22:27;4.35;;;3.70;;
42864;SDS011;28511;42.680;23.252;2023-11-21T05:24:52;6.07;;;4.63;;
42864;SDS011;28511;42.680;23.252;2023-11-21T05:27:18;7.00;;;3.88;;
42864;SDS011;28511;42.680;23.252;2023-11-21T05:29:43;3.33;;;3.13;;
42864;SDS011;28511;42.680;23.252;2023-11-21T05:32:08;4.63;;;2.83;;
42864;SDS011;28511;42.680;23.252;2023-11-21T05:34:34;5.05;;;3.88;;
42864;SDS011;28511;42.680;23.252;2023-11-21T05:37:01;7.90;;;2.92;;
42864;SDS011;28511;42.680;23.252;2023-11-21T05:39:27;5.85;;;4.30;;
42864;SDS011;28511;42.680;23.252;2023-11-21T05:41:53;9.65;;;3.60;;
42864;SDS011;28511;42.680;23.252;2023-11-21T05:44:18;9.75;;;4.72;;
42864;SDS011;28511;42.680;23.252;2023-11-21T05:46:45;3.40;;;3.13;;
42864;SDS011;28511;42.680;23.252;2023-11-21T05:49:10;6.72;;;5.07;;
42864;SDS011;28511;42.680;23.252;2023-11-21T05:51:37;4.72;;;4.18;;
42864;SDS011;28511;42.680;23.252;2023-11-21T05:54:06;8.45;;;4.55;;
42864;SDS011;28511;42.680;23.252;2023-11-21T05:56:31;6.75;;;4.40;;
42864;SDS011;28511;42.680;23.252;2023-11-21T05:58:56;9.90;;;4.82;;
42864;SDS011;28511;42.680;23.252;2023-11-21T06:01:23;9.13;;;7.00;;
42864;SDS011;28511;42.680;23.252;2023-11-21T06:03:48;8.40;;;5.97;;
42864;SDS011;28511;42.680;23.252;2023-11-21T06:06:13;13.48;;;6.53;;
42864;SDS011;28511;42.680;23.252;2023-11-21T06:08:39;4.85;;;4.25;;
42864;SDS011;28511;42.680;23.252;2023-11-21T06:11:04;6.00;;;4.28;;
42864;SDS011;28511;42.680;23.252;2023-11-21T06:13:29;9.25;;;5.43;;
42864;SDS011;28511;42.680;23.252;2023-11-21T06:15:55;10.45;;;5.90;;
42864;SDS011;28511;42.680;23.252;2023-11-21T06:18:21;5.05;;;4.45;;
42864;SDS011;28511;42.680;23.252;2023-11-21T06:20:47;3.72;;;3.35;;
42864;SDS011;28511;42.680;23.252;2023-11-21T06:23:12;7.68;;;4.63;;
42864;SDS011;28511;42.680;23.252;2023-11-21T06:25:39;7.45;;;5.85;;
42864;SDS011;28511;42.680;23.252;2023-11-21T06:28:06;7.82;;;5.95;;
42864;SDS011;28511;42.680;23.252;2023-11-21T06:30:32;7.43;;;4.07;;
42864;SDS011;28511;42.680;23.252;2023-11-21T06:32:58;8.00;;;7.25;;
42864;SDS011;28511;42.680;23.252;2023-11-21T06:35:24;3.40;;;2.80;;
42864;SDS011;28511;42.680;23.252;2023-11-21T06:37:50;11.23;;;6.65;;
42864;SDS011;28511;42.680;23.252;2023-11-21T06:40:17;8.50;;;4.40;;
42864;SDS011;28511;42.680;23.252;2023-11-21T06:42:51;5.75;;;4.10;;
42864;SDS011;28511;42.680;23.252;2023-11-21T06:45:19;8.27;;;4.38;;
42864;SDS011;28511;42.680;23.252;2023-11-21T06:47:45;8.82;;;3.03;;
42864;SDS011;28511;42.680;23.252;2023-11-21T06:50:10;6.35;;;3.25;;
42864;SDS011;28511;42.680;23.252;2023-11-21T06:52:36;4.10;;;2.97;;
42864;SDS011;28511;42.680;23.252;2023-11-21T06:55:03;10.05;;;3.47;;
42864;SDS011;28511;42.680;23.252;2023-11-21T06:57:31;14.13;;;4.30;;
42864;SDS011;28511;42.680;23.252;2023-11-21T06:59:59;6.07;;;4.80;;
42864;SDS011;28511;42.680;23.252;2023-11-21T07:02:24;8.75;;;5.88;;
42864;SDS011;28511;42.680;23.252;2023-11-21T07:04:50;6.93;;;4.60;;
42864;SDS011;28511;42.680;23.252;2023-11-21T07:07:16;8.27;;;6.15;;
42864;SDS011;28511;42.680;23.252;2023-11-21T07:09:42;8.13;;;5.72;;
42864;SDS011;28511;42.680;23.252;2023-11-21T07:12:07;6.25;;;4.65;;
42864;SDS011;28511;42.680;23.252;2023-11-21T07:14:35;11.68;;;6.50;;
42864;SDS011;28511;42.680;23.252;2023-11-21T07:17:03;17.63;;;6.35;;
42864;SDS011;28511;42.680;23.252;2023-11-21T07:19:40;8.82;;;6.00;;
42864;SDS011;28511;42.680;23.252;2023-11-21T07:22:07;4.85;;;4.35;;
42864;SDS011;28511;42.680;23.252;2023-11-21T07:24:36;4.78;;;3.22;;
42864;SDS011;28511;42.680;23.252;2023-11-21T07:27:02;13.98;;;5.70;;
42864;SDS011;28511;42.680;23.252;2023-11-21T07:29:29;8.50;;;4.00;;
42864;SDS011;28511;42.680;23.252;2023-11-21T07:31:55;11.95;;;5.43;;
42864;SDS011;28511;42.680;23.252;2023-11-21T07:34:20;7.78;;;5.32;;
42864;SDS011;28511;42.680;23.252;2023-11-21T07:36:46;9.88;;;6.75;;
42864;SDS011;28511;42.680;23.252;2023-11-21T07:39:11;10.52;;;7.43;;
42864;SDS011;28511;42.680;23.252;2023-11-21T07:41:37;4.70;;;4.20;;
42864;SDS011;28511;42.680;23.252;2023-11-21T07:44:09;11.15;;;5.93;;
42864;SDS011;28511;42.680;23.252;2023-11-21T07:46:35;19.85;;;7.50;;
42864;SDS011;28511;42.680;23.252;2023-11-21T07:49:00;8.10;;;4.90;;
42864;SDS011;28511;42.680;23.252;2023-11-21T07:51:26;13.93;;;6.90;;
42864;SDS011;28511;42.680;23.252;2023-11-21T07:53:51;8.63;;;6.22;;
42864;SDS011;28511;42.680;23.252;2023-11-21T07:56:18;10.20;;;5.78;;
42864;SDS011;28511;42.680;23.252;2023-11-21T07:58:43;10.38;;;7.03;;
42864;SDS011;28511;42.680;23.252;2023-11-21T08:01:09;14.70;;;7.60;;
42864;SDS011;28511;42.680;23.252;2023-11-21T08:03:36;10.07;;;6.70;;
42864;SDS011;28511;42.680;23.252;2023-11-21T08:06:03;12.15;;;7.75;;
42864;SDS011;28511;42.680;23.252;2023-11-21T08:08:30;11.63;;;7.97;;
42864;SDS011;28511;42.680;23.252;2023-11-21T08:10:58;10.70;;;7.22;;
42864;SDS011;28511;42.680;23.252;2023-11-21T08:13:27;14.20;;;6.50;;
42864;SDS011;28511;42.680;23.252;2023-11-21T08:15:57;9.57;;;7.10;;
42864;SDS011;28511;42.680;23.252;2023-11-21T08:18:30;10.10;;;7.65;;
42864;SDS011;28511;42.680;23.252;2023-11-21T08:20:56;15.13;;;7.97;;
42864;SDS011;28511;42.680;23.252;2023-11-21T08:23:22;28.13;;;8.88;;
42864;SDS011;28511;42.680;23.252;2023-11-21T08:25:50;13.65;;;9.32;;
42864;SDS011;28511;42.680;23.252;2023-11-21T08:28:18;15.40;;;10.40;;
42864;SDS011;28511;42.680;23.252;2023-11-21T08:30:44;22.83;;;9.73;;
42864;SDS011;28511;42.680;23.252;2023-11-21T08:33:12;15.35;;;8.48;;
42864;SDS011;28511;42.680;23.252;2023-11-21T08:35:38;15.30;;;6.55;;
42864;SDS011;28511;42.680;23.252;2023-11-21T08:38:05;19.00;;;8.75;;
42864;SDS011;28511;42.680;23.252;2023-11-21T08:40:30;14.80;;;8.07;;
42864;SDS011;28511;42.680;23.252;2023-11-21T08:42:55;18.27;;;7.13;;
42864;SDS011;28511;42.680;23.252;2023-11-21T08:45:27;9.40;;;6.47;;
42864;SDS011;28511;42.680;23.252;2023-11-21T08:47:56;12.32;;;7.70;;
42864;SDS011;28511;42.680;23.252;2023-11-21T08:50:22;12.88;;;7.32;;
42864;SDS011;28511;42.680;23.252;2023-11-21T08:52:50;21.90;;;7.60;;
42864;SDS011;28511;42.680;23.252;2023-11-21T08:55:16;10.07;;;6.82;;
42864;SDS011;28511;42.680;23.252;2023-11-21T08:57:45;7.50;;;5.85;;
42864;SDS011;28511;42.680;23.252;2023-11-21T09:00:16;16.83;;;8.38;;
42864;SDS011;28511;42.680;23.252;2023-11-21T09:02:45;10.32;;;7.47;;
42864;SDS011;28511;42.680;23.252;2023-11-21T09:05:10;11.50;;;7.38;;
42864;SDS011;28511;42.680;23.252;2023-11-21T09:07:38;10.25;;;6.50;;
42864;SDS011;28511;42.680;23.252;2023-11-21T09:10:04;14.45;;;8.07;;
42864;SDS011;28511;42.680;23.252;2023-11-21T09:12:36;18.45;;;6.30;;
42864;SDS011;28511;42.680;23.252;2023-11-21T09:15:05;23.25;;;7.18;;
42864;SDS011;28511;42.680;23.252;2023-11-21T09:17:39;11.60;;;7.45;;
42864;SDS011;28511;42.680;23.252;2023-11-21T09:20:05;8.90;;;5.50;;
42864;SDS011;28511;42.680;23.252;2023-11-21T09:22:32;13.07;;;6.68;;
42864;SDS011;28511;42.680;23.252;2023-11-21T09:24:59;8.15;;;6.53;;
42864;SDS011;28511;42.680;23.252;2023-11-21T09:27:24;21.02;;;8.60;;
42864;SDS011;28511;42.680;23.252;2023-11-21T09:29:51;14.95;;;7.53;;
42864;SDS011;28511;42.680;23.252;2023-11-21T09:32:19;6.25;;;4.88;;
42864;SDS011;28511;42.680;23.252;2023-11-21T09:34:46;9.38;;;6.28;;
42864;SDS011;28511;42.680;23.252;2023-11-21T09:39:50;8.43;;;6.40;;
42864;SDS011;28511;42.680;23.252;2023-11-21T09:42:23;14.75;;;6.18;;
42864;SDS011;28511;42.680;23.252;2023-11-21T09:47:17;11.05;;;6.88;;
42864;SDS011;28511;42.680;23.252;2023-11-21T09:49:47;22.23;;;7.05;;
42864;SDS011;28511;42.680;23.252;2023-11-21T09:52:28;16.40;;;6.75;;
42864;SDS011;28511;42.680;23.252;2023-11-21T09:54:54;14.23;;;6.68;;
42864;SDS011;28511;42.680;23.252;2023-11-21T09:57:40;16.17;;;9.57;;
42864;SDS011;28511;42.680;23.252;2023-11-21T10:00:10;13.38;;;6.20;;
42864;SDS011;28511;42.680;23.252;2023-11-21T10:02:38;14.30;;;7.78;;
42864;SDS011;28511;42.680;23.252;2023-11-21T10:05:06;10.30;;;6.93;;
42864;SDS011;28511;42.680;23.252;2023-11-21T10:07:35;14.48;;;6.97;;
42864;SDS011;28511;42.680;23.252;2023-11-21T10:10:00;13.65;;;8.23;;
42864;SDS011;28511;42.680;23.252;2023-11-21T10:12:26;14.07;;;7.05;;
42864;SDS011;28511;42.680;23.252;2023-11-21T10:14:56;14.65;;;7.25;;
42864;SDS011;28511;42.680;23.252;2023-11-21T10:17:23;8.32;;;6.65;;
42864;SDS011;28511;42.680;23.252;2023-11-21T10:19:52;12.82;;;5.88;;
42864;SDS011;28511;42.680;23.252;2023-11-21T10:23:03;15.45;;;7.20;;
42864;SDS011;28511;42.680;23.252;2023-11-21T10:25:48;11.45;;;7.60;;
42864;SDS011;28511;42.680;23.252;2023-11-21T10:30:51;17.10;;;9.68;;
42864;SDS011;28511;42.680;23.252;2023-11-21T10:33:37;11.98;;;7.38;;
42864;SDS011;28511;42.680;23.252;2023-11-21T10:36:06;17.35;;;8.80;;
42864;SDS011;28511;42.680;23.252;2023-11-21T10:41:03;13.27;;;7.43;;
42864;SDS011;28511;42.680;23.252;2023-11-21T10:43:40;20.95;;;9.77;;
42864;SDS011;28511;42.680;23.252;2023-11-21T10:46:08;13.70;;;6.40;;
42864;SDS011;28511;42.680;23.252;2023-11-21T10:48:36;13.07;;;8.65;;
42864;SDS011;28511;42.680;23.252;2023-11-21T10:51:06;10.00;;;8.23;;
42864;SDS011;28511;42.680;23.252;2023-11-21T10:53:32;12.07;;;8.32;;
42864;SDS011;28511;42.680;23.252;2023-11-21T10:56:05;11.63;;;7.93;;
42864;SDS011;28511;42.680;23.252;2023-11-21T10:58:50;16.17;;;10.70;;
42864;SDS011;28511;42.680;23.252;2023-11-21T11:01:17;15.32;;;9.00;;
42864;SDS011;28511;42.680;23.252;2023-11-21T11:03:51;13.20;;;9.00;;
42864;SDS011;28511;42.680;23.252;2023-11-21T11:06:19;17.98;;;9.57;;
42864;SDS011;28511;42.680;23.252;2023-11-21T11:08:46;16.05;;;9.52;;
42864;SDS011;28511;42.680;23.252;2023-11-21T11:11:14;14.23;;;7.88;;
42864;SDS011;28511;42.680;23.252;2023-11-21T11:13:42;15.85;;;11.02;;
42864;SDS011;28511;42.680;23.252;2023-11-21T11:18:43;21.67;;;9.45;;
42864;SDS011;28511;42.680;23.252;2023-11-21T11:28:42;18.55;;;8.68;;
42864;SDS011;28511;42.680;23.252;2023-11-21T11:42:02;26.13;;;11.73;;
42864;SDS011;28511;42.680;23.252;2023-11-21T11:47:28;22.23;;;9.68;;
42864;SDS011;28511;42.680;23.252;2023-11-21T11:50:05;16.83;;;8.35;;
42864;SDS011;28511;42.680;23.252;2023-11-21T11:52:43;13.40;;;8.15;;
42864;SDS011;28511;42.680;23.252;2023-11-21T11:55:29;17.10;;;8.57;;
42864;SDS011;28511;42.680;23.252;2023-11-21T11:57:55;16.80;;;9.80;;
42864;SDS011;28511;42.680;23.252;2023-11-21T12:00:22;7.85;;;6.32;;
42864;SDS011;28511;42.680;23.252;2023-11-21T12:02:59;12.18;;;5.78;;
42864;SDS011;28511;42.680;23.252;2023-11-21T12:05:33;10.75;;;5.78;;
42864;SDS011;28511;42.680;23.252;2023-11-21T12:08:08;9.90;;;6.35;;
42864;SDS011;28511;42.680;23.252;2023-11-21T12:10:35;13.63;;;7.72;;
42864;SDS011;28511;42.680;23.252;2023-11-21T12:15:43;16.67;;;6.97;;
42864;SDS011;28511;42.680;23.252;2023-11-21T12:18:14;9.25;;;6.72;;
42864;SDS011;28511;42.680;23.252;2023-11-21T12:21:01;11.48;;;8.00;;
42864;SDS011;28511;42.680;23.252;2023-11-21T12:23:28;11.80;;;8.18;;
42864;SDS011;28511;42.680;23.252;2023-11-21T12:25:57;17.27;;;7.95;;
42864;SDS011;28511;42.680;23.252;2023-11-21T12:28:25;9.82;;;6.60;;
42864;SDS011;28511;42.680;23.252;2023-11-21T12:30:52;12.73;;;6.95;;
42864;SDS011;28511;42.680;23.252;2023-11-21T12:33:17;11.70;;;6.63;;
42864;SDS011;28511;42.680;23.252;2023-11-21T12:35:48;11.55;;;6.93;;
42864;SDS011;28511;42.680;23.252;2023-11-21T12:38:20;12.68;;;5.70;;
42864;SDS011;28511;42.680;23.252;2023-11-21T12:40:50;10.27;;;5.95;;
42864;SDS011;28511;42.680;23.252;2023-11-21T12:43:17;7.85;;;5.07;;
42864;SDS011;28511;42.680;23.252;2023-11-21T12:45:43;5.78;;;3.85;;
42864;SDS011;28511;42.680;23.252;2023-11-21T12:48:10;15.30;;;6.43;;
42864;SDS011;28511;42.680;23.252;2023-11-21T12:50:37;6.07;;;4.82;;
42864;SDS011;28511;42.680;23.252;2023-11-21T12:53:07;6.55;;;4.65;;
42864;SDS011;28511;42.680;23.252;2023-11-21T12:55:41;7.93;;;4.70;;
42864;SDS011;28511;42.680;23.252;2023-11-21T12:58:11;7.07;;;5.43;;
42864;SDS011;28511;42.680;23.252;2023-11-21T13:03:16;7.30;;;4.95;;
42864;SDS011;28511;42.680;23.252;2023-11-21T13:06:04;13.25;;;7.00;;
42864;SDS011;28511;42.680;23.252;2023-11-21T13:08:30;7.43;;;6.10;;
42864;SDS011;28511;42.680;23.252;2023-11-21T13:10:56;8.07;;;5.15;;
42864;SDS011;28511;42.680;23.252;2023-11-21T13:13:23;11.88;;;5.30;;
42864;SDS011;28511;42.680;23.252;2023-11-21T13:15:50;6.13;;;5.50;;
42864;SDS011;28511;42.680;23.252;2023-11-21T13:18:35;5.88;;;4.40;;
42864;SDS011;28511;42.680;23.252;2023-11-21T13:21:03;10.32;;;4.50;;
42864;SDS011;28511;42.680;23.252;2023-11-21T13:23:36;10.57;;;5.63;;
42864;SDS011;28511;42.680;23.252;2023-11-21T13:26:03;9.75;;;5.70;;
42864;SDS011;28511;42.680;23.252;2023-11-21T13:28:29;9.27;;;5.45;;
42864;SDS011;28511;42.680;23.252;2023-11-21T13:30:57;7.68;;;4.82;;
42864;SDS011;28511;42.680;23.252;2023-11-21T13:33:28;9.45;;;5.80;;
42864;SDS011;28511;42.680;23.252;2023-11-21T13:35:59;8.23;;;5.68;;
42864;SDS011;28511;42.680;23.252;2023-11-21T13:38:32;7.13;;;5.85;;
42864;SDS011;28511;42.680;23.252;2023-11-21T13:41:11;7.78;;;5.03;;
42864;SDS011;28511;42.680;23.252;2023-11-21T13:43:40;5.32;;;3.35;;
42864;SDS011;28511;42.680;23.252;2023-11-21T13:46:09;6.50;;;4.70;;
42864;SDS011;28511;42.680;23.252;2023-11-21T13:48:46;12.90;;;6.70;;
42864;SDS011;28511;42.680;23.252;2023-11-21T13:51:21;7.50;;;6.85;;
42864;SDS011;28511;42.680;23.252;2023-11-21T13:53:54;10.13;;;6.13;;
42864;SDS011;28511;42.680;23.252;2023-11-21T13:56:23;11.20;;;6.43;;
42864;SDS011;28511;42.680;23.252;2023-11-21T13:58:54;8.97;;;6.20;;
42864;SDS011;28511;42.680;23.252;2023-11-21T14:01:21;11.68;;;6.43;;
42864;SDS011;28511;42.680;23.252;2023-11-21T14:03:56;11.25;;;5.75;;
42864;SDS011;28511;42.680;23.252;2023-11-21T14:06:48;6.75;;;4.93;;
42864;SDS011;28511;42.680;23.252;2023-11-21T14:09:17;8.98;;;4.85;;
42864;SDS011;28511;42.680;23.252;2023-11-21T14:12:02;10.48;;;5.18;;
42864;SDS011;28511;42.680;23.252;2023-11-21T14:14:31;14.40;;;6.28;;
42864;SDS011;28511;42.680;23.252;2023-11-21T14:16:57;9.88;;;6.68;;
42864;SDS011;28511;42.680;23.252;2023-11-21T14:19:24;17.35;;;6.65;;
42864;SDS011;28511;42.680;23.252;2023-11-21T14:21:54;21.17;;;11.45;;
42864;SDS011;28511;42.680;23.252;2023-11-21T14:24:19;6.15;;;4.47;;
42864;SDS011;28511;42.680;23.252;2023-11-21T14:26:46;14.32;;;8.80;;
42864;SDS011;28511;42.680;23.252;2023-11-21T14:29:12;6.22;;;5.25;;
42864;SDS011;28511;42.680;23.252;2023-11-21T14:31:42;13.90;;;5.90;;
42864;SDS011;28511;42.680;23.252;2023-11-21T14:36:38;12.47;;;6.00;;
42864;SDS011;28511;42.680;23.252;2023-11-21T14:39:08;10.13;;;6.95;;
42864;SDS011;28511;42.680;23.252;2023-11-21T14:41:41;26.45;;;8.27;;
42864;SDS011;28511;42.680;23.252;2023-11-21T14:44:09;21.23;;;9.32;;
42864;SDS011;28511;42.680;23.252;2023-11-21T14:47:02;17.70;;;11.60;;
42864;SDS011;28511;42.680;23.252;2023-11-21T14:49:49;20.85;;;9.30;;
42864;SDS011;28511;42.680;23.252;2023-11-21T14:52:21;16.52;;;9.32;;
42864;SDS011;28511;42.680;23.252;2023-11-21T14:55:12;15.98;;;11.93;;
42864;SDS011;28511;42.680;23.252;2023-11-21T14:58:06;30.27;;;11.63;;
42864;SDS011;28511;42.680;23.252;2023-11-21T15:00:35;20.13;;;10.68;;
42864;SDS011;28511;42.680;23.252;2023-11-21T15:03:05;23.23;;;12.80;;
42864;SDS011;28511;42.680;23.252;2023-11-21T15:05:31;25.38;;;10.52;;
42864;SDS011;28511;42.680;23.252;2023-11-21T15:07:59;19.92;;;10.82;;
42864;SDS011;28511;42.680;23.252;2023-11-21T15:10:43;14.63;;;7.75;;
42864;SDS011;28511;42.680;23.252;2023-11-21T15:13:13;12.35;;;8.90;;
42864;SDS011;28511;42.680;23.252;2023-11-21T15:15:47;13.20;;;8.05;;
42864;SDS011;28511;42.680;23.252;2023-11-21T15:18:12;21.13;;;10.52;;
42864;SDS011;28511;42.680;23.252;2023-11-21T15:20:41;11.32;;;9.88;;